Time,TemperatureF,DewpointF,PressureIn,WindDirection,WindDirectionDegrees,WindSpeedMPH,WindSpeedGustMPH,Humidity,HourlyPrecipIn,Conditions,Clouds,dailyrainin,SolarRadiationWatts/m^2,SoftwareType,DateUTC
2013-09-19 00:01:00,69.0,67.0,-100.00,NNW,340,1.0,2.0,94,0.00,,,0.00,0.000000,,2013-09-19 04:01:00,
2013-09-19 00:25:00,68.0,67.0,-100.00,NW,306,1.0,2.0,96,0.00,,,0.00,0.000000,,2013-09-19 04:25:00,
2013-09-19 00:34:00,68.0,67.0,-100.00,NW,306,1.0,2.0,96,0.00,,,0.00,0.000000,,2013-09-19 04:34:00,
2013-09-19 00:44:00,68.0,67.0,-100.00,NW,306,1.0,2.0,96,0.00,,,0.00,0.000000,,2013-09-19 04:44:00,
2013-09-19 00:54:00,68.0,67.0,-100.00,NW,306,1.0,2.0,96,0.00,,,0.00,0.000000,,2013-09-19 04:54:00,
2013-09-19 01:03:00,68.0,67.0,-100.00,NW,306,1.0,2.0,96,0.00,,,0.00,0.000000,,2013-09-19 05:03:00,
2013-09-19 01:23:00,67.0,66.0,-100.00,NW,325,0.0,0.0,97,0.00,,,0.00,0.000000,,2013-09-19 05:23:00,
2013-09-19 01:34:00,67.0,66.0,-100.00,NW,325,0.0,0.0,97,0.00,,,0.00,0.000000,,2013-09-19 05:34:00,
2013-09-19 01:43:00,67.0,66.0,-100.00,NW,325,0.0,0.0,97,0.00,,,0.00,0.000000,,2013-09-19 05:43:00,
2013-09-19 01:52:00,67.0,66.0,-100.00,NW,325,0.0,0.0,97,0.00,,,0.00,0.000000,,2013-09-19 05:52:00,
2013-09-19 02:02:00,67.0,66.0,-100.00,NW,325,0.0,0.0,97,0.00,,,0.00,0.000000,,2013-09-19 06:02:00,
2013-09-19 02:22:00,67.0,66.0,-100.00,WNW,302,1.0,4.0,98,0.00,,,0.00,0.000000,,2013-09-19 06:22:00,
2013-09-19 02:32:00,67.0,66.0,-100.00,WNW,302,1.0,4.0,98,0.00,,,0.00,0.000000,,2013-09-19 06:32:00,
2013-09-19 02:43:00,67.0,66.0,-100.00,WNW,302,1.0,4.0,98,0.00,,,0.00,0.000000,,2013-09-19 06:43:00,
2013-09-19 02:52:00,67.0,66.0,-100.00,WNW,302,1.0,4.0,98,0.00,,,0.00,0.000000,,2013-09-19 06:52:00,
2013-09-19 03:02:00,67.0,66.0,-100.00,WNW,302,1.0,4.0,98,0.00,,,0.00,0.000000,,2013-09-19 07:02:00,
2013-09-19 03:22:00,67.0,65.0,-100.00,North,7,2.0,4.0,94,0.00,,,0.00,0.000000,,2013-09-19 07:22:00,
2013-09-19 03:33:00,67.0,65.0,-100.00,North,7,2.0,4.0,94,0.00,,,0.00,0.000000,,2013-09-19 07:33:00,
2013-09-19 03:42:00,67.0,65.0,-100.00,North,7,2.0,4.0,94,0.00,,,0.00,0.000000,,2013-09-19 07:42:00,
2013-09-19 03:52:00,67.0,65.0,-100.00,North,7,2.0,4.0,94,0.00,,,0.00,0.000000,,2013-09-19 07:52:00,
2013-09-19 04:02:00,67.0,65.0,-100.00,North,7,2.0,4.0,94,0.00,,,0.00,0.000000,,2013-09-19 08:02:00,
2013-09-19 04:22:00,66.0,64.0,-100.00,WNW,291,1.0,4.0,92,0.00,,,0.00,0.000000,,2013-09-19 08:22:00,
2013-09-19 04:33:00,66.0,64.0,-100.00,WNW,291,1.0,4.0,92,0.00,,,0.00,0.000000,,2013-09-19 08:33:00,
2013-09-19 04:42:00,66.0,64.0,-100.00,WNW,291,1.0,4.0,92,0.00,,,0.00,0.000000,,2013-09-19 08:42:00,
2013-09-19 04:52:00,66.0,64.0,-100.00,WNW,291,1.0,4.0,92,0.00,,,0.00,0.000000,,2013-09-19 08:52:00,
2013-09-19 05:02:00,66.0,64.0,-100.00,WNW,291,1.0,4.0,92,0.00,,,0.00,0.000000,,2013-09-19 09:02:00,
2013-09-19 05:22:00,65.0,62.0,-100.00,North,3,1.0,5.0,91,0.00,,,0.00,0.000000,,2013-09-19 09:22:00,
2013-09-19 05:33:00,65.0,62.0,-100.00,North,3,1.0,5.0,91,0.00,,,0.00,0.000000,,2013-09-19 09:33:00,
2013-09-19 05:43:00,65.0,62.0,-100.00,North,3,1.0,5.0,91,0.00,,,0.00,0.000000,,2013-09-19 09:43:00,
2013-09-19 05:53:00,65.0,62.0,-100.00,North,3,1.0,5.0,91,0.00,,,0.00,0.000000,,2013-09-19 09:53:00,
2013-09-19 06:03:00,65.0,62.0,-100.00,North,3,1.0,5.0,91,0.00,,,0.00,0.000000,,2013-09-19 10:03:00,
2013-09-19 06:43:00,65.0,63.0,-100.00,NNW,338,1.0,4.0,92,0.00,,,0.00,0.000000,,2013-09-19 10:43:00,
2013-09-19 06:52:00,65.0,63.0,-100.00,NNW,338,1.0,4.0,92,0.00,,,0.00,0.000000,,2013-09-19 10:52:00,
2013-09-19 07:03:00,65.0,63.0,-100.00,NNW,338,1.0,4.0,92,0.00,,,0.00,0.000000,,2013-09-19 11:03:00,
2013-09-19 07:22:00,65.0,63.0,-100.00,NW,317,1.0,4.0,92,0.00,,,0.00,0.000000,,2013-09-19 11:22:00,
2013-09-19 07:33:00,65.0,63.0,-100.00,NW,317,1.0,4.0,92,0.00,,,0.00,0.000000,,2013-09-19 11:33:00,
2013-09-19 07:42:00,65.0,63.0,-100.00,NW,317,1.0,4.0,92,0.00,,,0.00,0.000000,,2013-09-19 11:42:00,
2013-09-19 07:53:00,65.0,63.0,-100.00,NW,317,1.0,4.0,92,0.00,,,0.00,0.000000,,2013-09-19 11:53:00,
2013-09-19 08:01:00,65.0,63.0,-100.00,NW,317,1.0,4.0,92,0.00,,,0.00,0.000000,,2013-09-19 12:01:00,
2013-09-19 08:43:00,67.0,65.0,-100.00,NNE,12,2.0,5.0,93,0.00,,,0.00,22.000000,,2013-09-19 12:43:00,
2013-09-19 08:52:00,67.0,65.0,-100.00,NNE,12,2.0,5.0,93,0.00,,,0.00,22.000000,,2013-09-19 12:52:00,
2013-09-19 09:02:00,67.0,65.0,-100.00,NNE,12,2.0,5.0,93,0.00,,,0.00,22.000000,,2013-09-19 13:02:00,
2013-09-19 09:43:00,72.0,66.0,-100.00,NNE,24,4.0,7.0,82,0.00,,,0.00,194.000000,,2013-09-19 13:43:00,
2013-09-19 09:52:00,72.0,66.0,-100.00,NNE,24,4.0,7.0,82,0.00,,,0.00,194.000000,,2013-09-19 13:52:00,
2013-09-19 10:02:00,72.0,66.0,-100.00,NNE,24,4.0,7.0,82,0.00,,,0.00,194.000000,,2013-09-19 14:02:00,
2013-09-19 10:22:00,77.0,71.0,-100.00,NE,47,4.0,7.0,81,0.00,,,0.00,315.000000,,2013-09-19 14:22:00,
2013-09-19 10:32:00,77.0,71.0,-100.00,NE,47,4.0,7.0,81,0.00,,,0.00,315.000000,,2013-09-19 14:32:00,
2013-09-19 10:42:00,77.0,71.0,-100.00,NE,47,4.0,7.0,81,0.00,,,0.00,315.000000,,2013-09-19 14:42:00,
2013-09-19 10:52:00,77.0,71.0,-100.00,NE,47,4.0,7.0,81,0.00,,,0.00,315.000000,,2013-09-19 14:52:00,
2013-09-19 11:02:00,77.0,71.0,-100.00,NE,47,4.0,7.0,81,0.00,,,0.00,315.000000,,2013-09-19 15:02:00,
2013-09-19 11:04:00,81.0,71.0,-100.00,ENE,61,4.0,11.0,71,0.00,,,0.00,607.000000,,2013-09-19 15:04:00,
2013-09-19 11:22:00,81.0,71.0,-100.00,ENE,61,4.0,11.0,71,0.00,,,0.00,607.000000,,2013-09-19 15:22:00,
2013-09-19 11:33:00,81.0,71.0,-100.00,ENE,61,4.0,11.0,71,0.00,,,0.00,607.000000,,2013-09-19 15:33:00,
2013-09-19 11:43:00,81.0,71.0,-100.00,ENE,61,4.0,11.0,71,0.00,,,0.00,607.000000,,2013-09-19 15:43:00,
2013-09-19 11:54:00,81.0,71.0,-100.00,ENE,61,4.0,11.0,71,0.00,,,0.00,607.000000,,2013-09-19 15:54:00,
2013-09-19 12:43:00,82.0,72.0,-100.00,ENE,74,4.0,9.0,73,0.00,,,0.00,413.000000,,2013-09-19 16:43:00,
2013-09-19 12:53:00,82.0,72.0,-100.00,ENE,74,4.0,9.0,73,0.00,,,0.00,413.000000,,2013-09-19 16:53:00,
2013-09-19 13:03:00,82.0,72.0,-100.00,ENE,74,4.0,9.0,73,0.00,,,0.00,413.000000,,2013-09-19 17:03:00,
2013-09-19 13:23:00,81.0,71.0,-100.00,ENE,73,5.0,12.0,72,0.00,,,0.00,428.000000,,2013-09-19 17:23:00,
2013-09-19 13:34:00,81.0,71.0,-100.00,ENE,73,5.0,12.0,72,0.00,,,0.00,428.000000,,2013-09-19 17:34:00,
2013-09-19 13:42:00,81.0,71.0,-100.00,ENE,73,5.0,12.0,72,0.00,,,0.00,428.000000,,2013-09-19 17:42:00,
2013-09-19 13:53:00,81.0,71.0,-100.00,ENE,73,5.0,12.0,72,0.00,,,0.00,428.000000,,2013-09-19 17:53:00,
2013-09-19 14:02:00,81.0,71.0,-100.00,ENE,73,5.0,12.0,72,0.00,,,0.00,428.000000,,2013-09-19 18:02:00,
2013-09-19 14:42:00,82.0,71.0,-100.00,ENE,77,6.0,15.0,70,0.00,,,0.00,537.000000,,2013-09-19 18:42:00,
2013-09-19 14:52:00,82.0,71.0,-100.00,ENE,77,6.0,15.0,70,0.00,,,0.00,537.000000,,2013-09-19 18:52:00,
2013-09-19 15:02:00,82.0,71.0,-100.00,ENE,77,6.0,15.0,70,0.00,,,0.00,537.000000,,2013-09-19 19:02:00,
2013-09-19 15:22:00,83.0,70.0,-100.00,East,94,7.0,14.0,65,0.00,,,0.00,656.000000,,2013-09-19 19:22:00,
2013-09-19 15:32:00,83.0,70.0,-100.00,East,94,7.0,14.0,65,0.00,,,0.00,656.000000,,2013-09-19 19:32:00,
2013-09-19 15:42:00,83.0,70.0,-100.00,East,94,7.0,14.0,65,0.00,,,0.00,656.000000,,2013-09-19 19:42:00,
2013-09-19 15:52:00,83.0,70.0,-100.00,East,94,7.0,14.0,65,0.00,,,0.00,656.000000,,2013-09-19 19:52:00,
2013-09-19 16:02:00,83.0,70.0,-100.00,East,94,7.0,14.0,65,0.00,,,0.00,656.000000,,2013-09-19 20:02:00,
2013-09-19 16:42:00,82.0,68.0,-100.00,East,98,6.0,14.0,63,0.00,,,0.00,521.000000,,2013-09-19 20:42:00,
2013-09-19 16:52:00,82.0,68.0,-100.00,East,98,6.0,14.0,63,0.00,,,0.00,521.000000,,2013-09-19 20:52:00,
2013-09-19 17:02:00,82.0,68.0,-100.00,East,98,6.0,14.0,63,0.00,,,0.00,521.000000,,2013-09-19 21:02:00,
2013-09-19 17:04:00,81.0,69.0,-100.00,East,88,5.0,11.0,68,0.00,,,0.00,353.000000,,2013-09-19 21:04:00,
2013-09-19 17:44:00,81.0,69.0,-100.00,East,88,5.0,11.0,68,0.00,,,0.00,353.000000,,2013-09-19 21:44:00,
2013-09-19 17:55:00,81.0,69.0,-100.00,East,88,5.0,11.0,68,0.00,,,0.00,353.000000,,2013-09-19 21:55:00,
2013-09-19 18:04:00,80.0,69.0,-100.00,East,100,6.0,12.0,69,0.00,,,0.00,289.000000,,2013-09-19 22:04:00,
2013-09-19 18:24:00,80.0,69.0,-100.00,East,100,6.0,12.0,69,0.00,,,0.00,289.000000,,2013-09-19 22:24:00,
2013-09-19 18:33:00,80.0,69.0,-100.00,East,100,6.0,12.0,69,0.00,,,0.00,289.000000,,2013-09-19 22:33:00,
2013-09-19 18:42:00,80.0,69.0,-100.00,East,100,6.0,12.0,69,0.00,,,0.00,289.000000,,2013-09-19 22:42:00,
2013-09-19 18:53:00,80.0,69.0,-100.00,East,100,6.0,12.0,69,0.00,,,0.00,289.000000,,2013-09-19 22:53:00,
2013-09-19 19:23:00,78.0,69.0,-100.00,East,98,4.0,12.0,75,0.00,,,0.00,136.000000,,2013-09-19 23:23:00,
2013-09-19 19:34:00,78.0,69.0,-100.00,East,98,4.0,12.0,75,0.00,,,0.00,136.000000,,2013-09-19 23:34:00,
2013-09-19 19:43:00,78.0,69.0,-100.00,East,98,4.0,12.0,75,0.00,,,0.00,136.000000,,2013-09-19 23:43:00,
2013-09-19 19:53:00,78.0,69.0,-100.00,East,98,4.0,12.0,75,0.00,,,0.00,136.000000,,2013-09-19 23:53:00,
2013-09-19 20:02:00,78.0,69.0,-100.00,East,98,4.0,12.0,75,0.00,,,0.00,136.000000,,2013-09-20 00:02:00,
2013-09-19 20:22:00,73.0,69.0,-100.00,East,86,1.0,6.0,86,0.00,,,0.00,5.000000,,2013-09-20 00:22:00,
2013-09-19 20:32:00,73.0,69.0,-100.00,East,86,1.0,6.0,86,0.00,,,0.00,5.000000,,2013-09-20 00:32:00,
2013-09-19 20:42:00,73.0,69.0,-100.00,East,86,1.0,6.0,86,0.00,,,0.00,5.000000,,2013-09-20 00:42:00,
2013-09-19 20:52:00,73.0,69.0,-100.00,East,86,1.0,6.0,86,0.00,,,0.00,5.000000,,2013-09-20 00:52:00,
2013-09-19 21:02:00,73.0,69.0,-100.00,East,86,1.0,6.0,86,0.00,,,0.00,5.000000,,2013-09-20 01:02:00,
2013-09-19 21:22:00,71.0,69.0,-100.00,ENE,62,0.0,1.0,94,0.00,,,0.00,0.000000,,2013-09-20 01:22:00,
2013-09-19 21:32:00,71.0,69.0,-100.00,ENE,62,0.0,1.0,94,0.00,,,0.00,0.000000,,2013-09-20 01:32:00,
2013-09-19 21:42:00,71.0,69.0,-100.00,ENE,62,0.0,1.0,94,0.00,,,0.00,0.000000,,2013-09-20 01:42:00,
2013-09-19 21:52:00,71.0,69.0,-100.00,ENE,62,0.0,1.0,94,0.00,,,0.00,0.000000,,2013-09-20 01:52:00,
2013-09-19 22:03:00,71.0,69.0,-100.00,ENE,62,0.0,1.0,94,0.00,,,0.00,0.000000,,2013-09-20 02:03:00,
2013-09-19 22:43:00,70.0,69.0,-100.00,North,7,0.0,0.0,97,0.00,,,0.00,0.000000,,2013-09-20 02:43:00,
2013-09-19 22:53:00,70.0,69.0,-100.00,North,7,0.0,0.0,97,0.00,,,0.00,0.000000,,2013-09-20 02:53:00,
2013-09-19 23:02:00,70.0,69.0,-100.00,North,7,0.0,0.0,97,0.00,,,0.00,0.000000,,2013-09-20 03:02:00,
2013-09-19 23:04:00,69.0,68.0,-100.00,NNW,328,0.0,0.0,98,0.00,,,0.00,0.000000,,2013-09-20 03:04:00,
2013-09-19 23:23:00,69.0,68.0,-100.00,NNW,328,0.0,0.0,98,0.00,,,0.00,0.000000,,2013-09-20 03:23:00,
2013-09-19 23:34:00,69.0,68.0,-100.00,NNW,328,0.0,0.0,98,0.00,,,0.00,0.000000,,2013-09-20 03:34:00,
2013-09-19 23:45:00,69.0,68.0,-100.00,NNW,328,0.0,0.0,98,0.00,,,0.00,0.000000,,2013-09-20 03:45:00,
2013-09-19 23:56:00,69.0,68.0,-100.00,NNW,328,0.0,0.0,98,0.00,,,0.00,0.000000,,2013-09-20 03:56:00,